sensor_id;sensor_type;location;lat;lon;timestamp;P1;durP1;ratioP1;P2;durP2;ratioP2
62006;SDS011;47963;53.008;6.754;2022-11-02T00:00:35;13.55;;;2.88;;
62006;SDS011;47963;53.008;6.754;2022-11-02T00:03:01;15.38;;;3.10;;
62006;SDS011;47963;53.008;6.754;2022-11-02T00:05:26;16.95;;;3.72;;
62006;SDS011;47963;53.008;6.754;2022-11-02T00:07:52;13.95;;;3.00;;
62006;SDS011;47963;53.008;6.754;2022-11-02T00:10:20;13.23;;;2.70;;
62006;SDS011;47963;53.008;6.754;2022-11-02T00:12:46;17.83;;;3.20;;
62006;SDS011;47963;53.008;6.754;2022-11-02T00:15:13;14.18;;;2.50;;
62006;SDS011;47963;53.008;6.754;2022-11-02T00:17:40;12.13;;;2.80;;
62006;SDS011;47963;53.008;6.754;2022-11-02T00:20:09;14.38;;;2.92;;
62006;SDS011;47963;53.008;6.754;2022-11-02T00:22:38;15.10;;;3.05;;
62006;SDS011;47963;53.008;6.754;2022-11-02T00:25:05;14.88;;;2.92;;
62006;SDS011;47963;53.008;6.754;2022-11-02T00:27:36;12.23;;;2.95;;
62006;SDS011;47963;53.008;6.754;2022-11-02T00:30:02;12.95;;;3.10;;
62006;SDS011;47963;53.008;6.754;2022-11-02T00:32:28;13.27;;;2.78;;
62006;SDS011;47963;53.008;6.754;2022-11-02T00:34:54;15.65;;;2.92;;
62006;SDS011;47963;53.008;6.754;2022-11-02T00:37:20;15.43;;;2.97;;
62006;SDS011;47963;53.008;6.754;2022-11-02T00:39:46;15.80;;;3.15;;
62006;SDS011;47963;53.008;6.754;2022-11-02T00:42:11;13.88;;;2.85;;
62006;SDS011;47963;53.008;6.754;2022-11-02T00:44:37;13.93;;;3.08;;
62006;SDS011;47963;53.008;6.754;2022-11-02T00:47:03;16.30;;;2.78;;
62006;SDS011;47963;53.008;6.754;2022-11-02T00:49:28;15.85;;;3.05;;
62006;SDS011;47963;53.008;6.754;2022-11-02T00:51:54;10.68;;;2.83;;
62006;SDS011;47963;53.008;6.754;2022-11-02T00:54:20;12.10;;;2.72;;
62006;SDS011;47963;53.008;6.754;2022-11-02T00:56:46;11.85;;;2.67;;
62006;SDS011;47963;53.008;6.754;2022-11-02T00:59:11;15.05;;;3.03;;
62006;SDS011;47963;53.008;6.754;2022-11-02T01:01:37;16.48;;;3.13;;
62006;SDS011;47963;53.008;6.754;2022-11-02T01:04:03;14.73;;;3.10;;
62006;SDS011;47963;53.008;6.754;2022-11-02T01:06:28;12.38;;;2.30;;
62006;SDS011;47963;53.008;6.754;2022-11-02T01:08:54;12.55;;;2.72;;
62006;SDS011;47963;53.008;6.754;2022-11-02T01:11:21;14.95;;;2.10;;
62006;SDS011;47963;53.008;6.754;2022-11-02T01:13:51;15.68;;;2.45;;
62006;SDS011;47963;53.008;6.754;2022-11-02T01:16:18;12.02;;;2.38;;
62006;SDS011;47963;53.008;6.754;2022-11-02T01:18:44;8.57;;;2.00;;
62006;SDS011;47963;53.008;6.754;2022-11-02T01:21:10;10.35;;;2.13;;
62006;SDS011;47963;53.008;6.754;2022-11-02T01:23:36;8.40;;;1.83;;
62006;SDS011;47963;53.008;6.754;2022-11-02T01:26:06;7.93;;;1.92;;
62006;SDS011;47963;53.008;6.754;2022-11-02T01:28:33;9.20;;;2.20;;
62006;SDS011;47963;53.008;6.754;2022-11-02T01:30:59;11.20;;;1.98;;
62006;SDS011;47963;53.008;6.754;2022-11-02T01:33:26;13.27;;;3.10;;
62006;SDS011;47963;53.008;6.754;2022-11-02T01:35:52;15.80;;;3.55;;
62006;SDS011;47963;53.008;6.754;2022-11-02T01:38:18;17.35;;;3.28;;
62006;SDS011;47963;53.008;6.754;2022-11-02T01:40:43;13.10;;;3.30;;
62006;SDS011;47963;53.008;6.754;2022-11-02T01:45:57;16.92;;;4.10;;
62006;SDS011;47963;53.008;6.754;2022-11-02T01:48:31;16.70;;;3.95;;
62006;SDS011;47963;53.008;6.754;2022-11-02T01:51:31;19.80;;;4.22;;
62006;SDS011;47963;53.008;6.754;2022-11-02T01:54:11;17.95;;;4.75;;
62006;SDS011;47963;53.008;6.754;2022-11-02T01:56:42;18.27;;;4.28;;
62006;SDS011;47963;53.008;6.754;2022-11-02T01:59:14;21.30;;;4.80;;
62006;SDS011;47963;53.008;6.754;2022-11-02T02:01:44;16.27;;;4.10;;
62006;SDS011;47963;53.008;6.754;2022-11-02T02:04:11;15.70;;;4.20;;
62006;SDS011;47963;53.008;6.754;2022-11-02T02:06:38;21.52;;;4.82;;
62006;SDS011;47963;53.008;6.754;2022-11-02T02:09:04;19.48;;;4.43;;
62006;SDS011;47963;53.008;6.754;2022-11-02T02:14:17;23.77;;;6.03;;
62006;SDS011;47963;53.008;6.754;2022-11-02T02:19:23;25.58;;;5.55;;
62006;SDS011;47963;53.008;6.754;2022-11-02T02:22:07;19.75;;;5.05;;
62006;SDS011;47963;53.008;6.754;2022-11-02T02:24:43;24.38;;;5.30;;
62006;SDS011;47963;53.008;6.754;2022-11-02T02:34:59;21.50;;;6.00;;
62006;SDS011;47963;53.008;6.754;2022-11-02T02:37:38;22.50;;;5.80;;
62006;SDS011;47963;53.008;6.754;2022-11-02T02:40:16;20.55;;;5.75;;
62006;SDS011;47963;53.008;6.754;2022-11-02T02:42:48;24.52;;;5.40;;
62006;SDS011;47963;53.008;6.754;2022-11-02T02:45:37;24.83;;;6.25;;
62006;SDS011;47963;53.008;6.754;2022-11-02T02:48:15;21.10;;;5.68;;
62006;SDS011;47963;53.008;6.754;2022-11-02T02:53:16;22.67;;;5.53;;
62006;SDS011;47963;53.008;6.754;2022-11-02T02:55:50;24.77;;;5.28;;
62006;SDS011;47963;53.008;6.754;2022-11-02T02:58:27;16.10;;;4.40;;
62006;SDS011;47963;53.008;6.754;2022-11-02T03:00:56;17.80;;;4.25;;
62006;SDS011;47963;53.008;6.754;2022-11-02T03:03:25;15.70;;;3.50;;
62006;SDS011;47963;53.008;6.754;2022-11-02T03:08:30;13.57;;;3.25;;
62006;SDS011;47963;53.008;6.754;2022-11-02T03:11:03;12.32;;;3.40;;
62006;SDS011;47963;53.008;6.754;2022-11-02T03:24:56;13.45;;;3.30;;
62006;SDS011;47963;53.008;6.754;2022-11-02T03:27:49;16.67;;;3.88;;
62006;SDS011;47963;53.008;6.754;2022-11-02T03:30:21;15.88;;;3.60;;
62006;SDS011;47963;53.008;6.754;2022-11-02T03:35:50;15.48;;;3.40;;
62006;SDS011;47963;53.008;6.754;2022-11-02T03:38:27;14.82;;;3.42;;
62006;SDS011;47963;53.008;6.754;2022-11-02T03:41:03;17.63;;;3.15;;
62006;SDS011;47963;53.008;6.754;2022-11-02T03:43:31;16.45;;;3.55;;
62006;SDS011;47963;53.008;6.754;2022-11-02T03:46:00;18.60;;;3.28;;
62006;SDS011;47963;53.008;6.754;2022-11-02T03:48:31;12.18;;;2.80;;
62006;SDS011;47963;53.008;6.754;2022-11-02T03:51:02;13.10;;;3.75;;
62006;SDS011;47963;53.008;6.754;2022-11-02T03:53:34;23.42;;;3.25;;
62006;SDS011;47963;53.008;6.754;2022-11-02T03:56:09;13.70;;;2.80;;
62006;SDS011;47963;53.008;6.754;2022-11-02T03:58:41;14.52;;;2.58;;
62006;SDS011;47963;53.008;6.754;2022-11-02T04:01:06;22.17;;;2.95;;
62006;SDS011;47963;53.008;6.754;2022-11-02T04:03:33;17.00;;;2.83;;
62006;SDS011;47963;53.008;6.754;2022-11-02T04:06:03;15.38;;;3.13;;
62006;SDS011;47963;53.008;6.754;2022-11-02T04:08:33;12.95;;;2.30;;
62006;SDS011;47963;53.008;6.754;2022-11-02T04:11:01;19.13;;;3.15;;
62006;SDS011;47963;53.008;6.754;2022-11-02T04:13:46;20.73;;;3.15;;
62006;SDS011;47963;53.008;6.754;2022-11-02T04:16:30;24.98;;;3.05;;
62006;SDS011;47963;53.008;6.754;2022-11-02T04:18:56;14.65;;;2.80;;
62006;SDS011;47963;53.008;6.754;2022-11-02T04:21:40;17.55;;;2.95;;
62006;SDS011;47963;53.008;6.754;2022-11-02T04:24:26;17.73;;;2.83;;
62006;SDS011;47963;53.008;6.754;2022-11-02T04:27:10;15.80;;;2.50;;
62006;SDS011;47963;53.008;6.754;2022-11-02T04:29:36;18.80;;;2.60;;
62006;SDS011;47963;53.008;6.754;2022-11-02T04:32:01;15.40;;;2.47;;
62006;SDS011;47963;53.008;6.754;2022-11-02T04:34:27;14.15;;;2.78;;
62006;SDS011;47963;53.008;6.754;2022-11-02T04:36:53;16.80;;;3.00;;
62006;SDS011;47963;53.008;6.754;2022-11-02T04:39:18;17.05;;;3.10;;
62006;SDS011;47963;53.008;6.754;2022-11-02T04:41:44;14.10;;;3.00;;
62006;SDS011;47963;53.008;6.754;2022-11-02T04:44:11;17.95;;;3.10;;
62006;SDS011;47963;53.008;6.754;2022-11-02T04:46:41;15.32;;;3.20;;
62006;SDS011;47963;53.008;6.754;2022-11-02T04:49:08;16.08;;;3.40;;
62006;SDS011;47963;53.008;6.754;2022-11-02T04:51:35;18.08;;;3.20;;
62006;SDS011;47963;53.008;6.754;2022-11-02T04:54:01;16.02;;;3.47;;
62006;SDS011;47963;53.008;6.754;2022-11-02T04:56:28;18.40;;;3.85;;
62006;SDS011;47963;53.008;6.754;2022-11-02T04:58:54;16.75;;;3.47;;
62006;SDS011;47963;53.008;6.754;2022-11-02T05:01:21;18.00;;;3.50;;
62006;SDS011;47963;53.008;6.754;2022-11-02T05:03:50;18.40;;;3.55;;
62006;SDS011;47963;53.008;6.754;2022-11-02T05:06:17;20.48;;;4.13;;
62006;SDS011;47963;53.008;6.754;2022-11-02T05:08:44;18.65;;;3.88;;
62006;SDS011;47963;53.008;6.754;2022-11-02T05:11:10;16.17;;;4.05;;
62006;SDS011;47963;53.008;6.754;2022-11-02T05:13:36;19.67;;;4.20;;
62006;SDS011;47963;53.008;6.754;2022-11-02T05:16:03;17.65;;;4.13;;
62006;SDS011;47963;53.008;6.754;2022-11-02T05:18:29;18.58;;;4.40;;
62006;SDS011;47963;53.008;6.754;2022-11-02T05:20:55;17.80;;;4.80;;
62006;SDS011;47963;53.008;6.754;2022-11-02T05:23:23;19.45;;;4.35;;
62006;SDS011;47963;53.008;6.754;2022-11-02T05:25:56;23.02;;;4.43;;
62006;SDS011;47963;53.008;6.754;2022-11-02T05:28:26;24.45;;;4.72;;
62006;SDS011;47963;53.008;6.754;2022-11-02T05:30:53;20.80;;;4.80;;
62006;SDS011;47963;53.008;6.754;2022-11-02T05:33:19;18.90;;;4.53;;
62006;SDS011;47963;53.008;6.754;2022-11-02T05:35:45;17.83;;;4.70;;
62006;SDS011;47963;53.008;6.754;2022-11-02T05:38:10;19.77;;;4.28;;
62006;SDS011;47963;53.008;6.754;2022-11-02T05:40:36;19.63;;;4.40;;
62006;SDS011;47963;53.008;6.754;2022-11-02T05:43:04;21.90;;;5.32;;
62006;SDS011;47963;53.008;6.754;2022-11-02T05:45:31;21.15;;;4.75;;
62006;SDS011;47963;53.008;6.754;2022-11-02T05:47:58;23.02;;;4.30;;
62006;SDS011;47963;53.008;6.754;2022-11-02T05:50:25;22.10;;;4.60;;
62006;SDS011;47963;53.008;6.754;2022-11-02T05:52:51;24.02;;;5.50;;
62006;SDS011;47963;53.008;6.754;2022-11-02T05:55:17;23.27;;;4.97;;
62006;SDS011;47963;53.008;6.754;2022-11-02T05:57:43;24.65;;;4.97;;
62006;SDS011;47963;53.008;6.754;2022-11-02T06:00:18;25.60;;;5.05;;
62006;SDS011;47963;53.008;6.754;2022-11-02T06:02:45;19.13;;;4.47;;
62006;SDS011;47963;53.008;6.754;2022-11-02T06:05:12;20.80;;;3.80;;
62006;SDS011;47963;53.008;6.754;2022-11-02T06:07:37;19.55;;;4.50;;
62006;SDS011;47963;53.008;6.754;2022-11-02T06:10:03;19.77;;;4.43;;
62006;SDS011;47963;53.008;6.754;2022-11-02T06:12:29;16.40;;;3.80;;
62006;SDS011;47963;53.008;6.754;2022-11-02T06:14:55;24.42;;;4.35;;
62006;SDS011;47963;53.008;6.754;2022-11-02T06:17:20;18.45;;;4.40;;
62006;SDS011;47963;53.008;6.754;2022-11-02T06:19:46;23.95;;;4.88;;
62006;SDS011;47963;53.008;6.754;2022-11-02T06:22:11;26.13;;;5.13;;
62006;SDS011;47963;53.008;6.754;2022-11-02T06:24:37;21.95;;;4.60;;
62006;SDS011;47963;53.008;6.754;2022-11-02T06:27:03;29.00;;;5.03;;
62006;SDS011;47963;53.008;6.754;2022-11-02T06:29:29;20.50;;;4.95;;
62006;SDS011;47963;53.008;6.754;2022-11-02T06:31:54;21.33;;;5.28;;
62006;SDS011;47963;53.008;6.754;2022-11-02T06:34:20;26.48;;;5.40;;
62006;SDS011;47963;53.008;6.754;2022-11-02T06:36:46;28.67;;;5.90;;
62006;SDS011;47963;53.008;6.754;2022-11-02T06:39:11;23.27;;;6.07;;
62006;SDS011;47963;53.008;6.754;2022-11-02T06:41:37;23.83;;;5.35;;
62006;SDS011;47963;53.008;6.754;2022-11-02T06:44:03;25.13;;;5.50;;
62006;SDS011;47963;53.008;6.754;2022-11-02T06:46:28;23.20;;;5.60;;
62006;SDS011;47963;53.008;6.754;2022-11-02T06:48:54;23.85;;;6.03;;
62006;SDS011;47963;53.008;6.754;2022-11-02T06:51:19;20.42;;;5.13;;
62006;SDS011;47963;53.008;6.754;2022-11-02T06:53:48;26.20;;;5.32;;
62006;SDS011;47963;53.008;6.754;2022-11-02T06:56:14;25.17;;;5.60;;
62006;SDS011;47963;53.008;6.754;2022-11-02T06:58:39;25.52;;;5.45;;
62006;SDS011;47963;53.008;6.754;2022-11-02T07:01:05;28.05;;;5.43;;
62006;SDS011;47963;53.008;6.754;2022-11-02T07:03:32;29.02;;;6.45;;
62006;SDS011;47963;53.008;6.754;2022-11-02T07:05:59;28.50;;;6.03;;
62006;SDS011;47963;53.008;6.754;2022-11-02T07:08:25;30.30;;;5.82;;
62006;SDS011;47963;53.008;6.754;2022-11-02T07:10:51;26.20;;;5.75;;
62006;SDS011;47963;53.008;6.754;2022-11-02T07:13:17;37.85;;;6.53;;
62006;SDS011;47963;53.008;6.754;2022-11-02T07:15:43;23.55;;;5.40;;
62006;SDS011;47963;53.008;6.754;2022-11-02T07:18:09;32.10;;;5.57;;
62006;SDS011;47963;53.008;6.754;2022-11-02T07:20:35;28.95;;;5.50;;
62006;SDS011;47963;53.008;6.754;2022-11-02T07:23:02;23.75;;;5.05;;
62006;SDS011;47963;53.008;6.754;2022-11-02T07:25:29;25.55;;;5.50;;
62006;SDS011;47963;53.008;6.754;2022-11-02T07:27:55;31.80;;;5.75;;
62006;SDS011;47963;53.008;6.754;2022-11-02T07:30:24;28.35;;;5.70;;
62006;SDS011;47963;53.008;6.754;2022-11-02T07:32:50;33.42;;;5.43;;
62006;SDS011;47963;53.008;6.754;2022-11-02T07:35:16;29.98;;;5.72;;
62006;SDS011;47963;53.008;6.754;2022-11-02T07:37:42;26.95;;;4.95;;
62006;SDS011;47963;53.008;6.754;2022-11-02T07:40:09;21.55;;;4.72;;
62006;SDS011;47963;53.008;6.754;2022-11-02T07:42:42;26.52;;;5.53;;
62006;SDS011;47963;53.008;6.754;2022-11-02T07:45:09;23.05;;;4.57;;
62006;SDS011;47963;53.008;6.754;2022-11-02T07:47:42;31.45;;;5.45;;
62006;SDS011;47963;53.008;6.754;2022-11-02T07:50:09;27.30;;;4.75;;
62006;SDS011;47963;53.008;6.754;2022-11-02T07:52:41;26.67;;;4.43;;
62006;SDS011;47963;53.008;6.754;2022-11-02T07:55:08;23.98;;;4.70;;
62006;SDS011;47963;53.008;6.754;2022-11-02T07:57:33;26.55;;;4.68;;
62006;SDS011;47963;53.008;6.754;2022-11-02T07:59:59;27.20;;;4.50;;
62006;SDS011;47963;53.008;6.754;2022-11-02T08:02:25;29.40;;;4.68;;
62006;SDS011;47963;53.008;6.754;2022-11-02T08:04:50;18.58;;;4.18;;
62006;SDS011;47963;53.008;6.754;2022-11-02T08:07:16;24.50;;;4.38;;
62006;SDS011;47963;53.008;6.754;2022-11-02T08:09:41;24.92;;;4.53;;
62006;SDS011;47963;53.008;6.754;2022-11-02T08:12:07;25.85;;;4.13;;
62006;SDS011;47963;53.008;6.754;2022-11-02T08:14:33;23.02;;;4.15;;
62006;SDS011;47963;53.008;6.754;2022-11-02T08:16:58;24.20;;;4.18;;
62006;SDS011;47963;53.008;6.754;2022-11-02T08:19:24;22.35;;;4.03;;
62006;SDS011;47963;53.008;6.754;2022-11-02T08:21:50;24.92;;;3.65;;
62006;SDS011;47963;53.008;6.754;2022-11-02T08:24:15;24.92;;;3.97;;
62006;SDS011;47963;53.008;6.754;2022-11-02T08:26:41;21.40;;;4.07;;
62006;SDS011;47963;53.008;6.754;2022-11-02T08:29:06;24.73;;;3.85;;
62006;SDS011;47963;53.008;6.754;2022-11-02T08:31:32;19.30;;;3.10;;
62006;SDS011;47963;53.008;6.754;2022-11-02T08:33:58;21.75;;;3.70;;
62006;SDS011;47963;53.008;6.754;2022-11-02T08:36:23;22.00;;;3.50;;
62006;SDS011;47963;53.008;6.754;2022-11-02T08:38:49;17.58;;;3.17;;
62006;SDS011;47963;53.008;6.754;2022-11-02T08:41:15;21.05;;;3.88;;
62006;SDS011;47963;53.008;6.754;2022-11-02T08:43:40;19.55;;;3.25;;
62006;SDS011;47963;53.008;6.754;2022-11-02T08:46:06;21.17;;;3.70;;
62006;SDS011;47963;53.008;6.754;2022-11-02T08:48:32;19.10;;;3.95;;
62006;SDS011;47963;53.008;6.754;2022-11-02T08:50:57;16.02;;;3.03;;
62006;SDS011;47963;53.008;6.754;2022-11-02T08:53:23;26.17;;;3.35;;
62006;SDS011;47963;53.008;6.754;2022-11-02T08:55:49;29.92;;;3.97;;
62006;SDS011;47963;53.008;6.754;2022-11-02T08:58:14;22.85;;;3.55;;
62006;SDS011;47963;53.008;6.754;2022-11-02T09:00:40;22.17;;;3.80;;
62006;SDS011;47963;53.008;6.754;2022-11-02T09:05:37;21.95;;;4.22;;
62006;SDS011;47963;53.008;6.754;2022-11-02T09:08:06;20.75;;;3.92;;
62006;SDS011;47963;53.008;6.754;2022-11-02T09:10:35;15.38;;;2.97;;
62006;SDS011;47963;53.008;6.754;2022-11-02T09:13:02;16.95;;;3.08;;
62006;SDS011;47963;53.008;6.754;2022-11-02T09:15:31;19.67;;;3.50;;
62006;SDS011;47963;53.008;6.754;2022-11-02T09:17:58;16.23;;;2.83;;
62006;SDS011;47963;53.008;6.754;2022-11-02T09:20:24;18.80;;;3.10;;
62006;SDS011;47963;53.008;6.754;2022-11-02T09:22:49;16.30;;;3.00;;
62006;SDS011;47963;53.008;6.754;2022-11-02T09:25:15;19.63;;;3.40;;
62006;SDS011;47963;53.008;6.754;2022-11-02T09:27:41;17.95;;;3.47;;
62006;SDS011;47963;53.008;6.754;2022-11-02T09:30:08;13.90;;;3.33;;
62006;SDS011;47963;53.008;6.754;2022-11-02T09:32:35;20.02;;;3.15;;
62006;SDS011;47963;53.008;6.754;2022-11-02T09:35:07;20.65;;;3.47;;
62006;SDS011;47963;53.008;6.754;2022-11-02T09:37:35;19.40;;;3.20;;
62006;SDS011;47963;53.008;6.754;2022-11-02T09:40:01;17.77;;;3.30;;
62006;SDS011;47963;53.008;6.754;2022-11-02T09:45:12;19.27;;;3.03;;
62006;SDS011;47963;53.008;6.754;2022-11-02T09:47:42;20.65;;;3.30;;
62006;SDS011;47963;53.008;6.754;2022-11-02T09:50:13;19.73;;;3.33;;
62006;SDS011;47963;53.008;6.754;2022-11-02T09:52:44;16.65;;;3.33;;
62006;SDS011;47963;53.008;6.754;2022-11-02T09:55:14;14.77;;;2.83;;
62006;SDS011;47963;53.008;6.754;2022-11-02T09:57:44;17.60;;;3.40;;
62006;SDS011;47963;53.008;6.754;2022-11-02T10:00:13;26.48;;;3.83;;
62006;SDS011;47963;53.008;6.754;2022-11-02T10:02:50;17.63;;;3.15;;
62006;SDS011;47963;53.008;6.754;2022-11-02T10:11:23;16.13;;;3.13;;
62006;SDS011;47963;53.008;6.754;2022-11-02T10:16:43;20.02;;;3.17;;
62006;SDS011;47963;53.008;6.754;2022-11-02T10:19:15;24.13;;;3.63;;
62006;SDS011;47963;53.008;6.754;2022-11-02T10:21:45;18.10;;;3.00;;
62006;SDS011;47963;53.008;6.754;2022-11-02T10:24:30;16.42;;;3.08;;
62006;SDS011;47963;53.008;6.754;2022-11-02T10:27:01;18.08;;;3.05;;
62006;SDS011;47963;53.008;6.754;2022-11-02T10:30:10;20.13;;;2.90;;
62006;SDS011;47963;53.008;6.754;2022-11-02T10:32:36;20.63;;;3.63;;
62006;SDS011;47963;53.008;6.754;2022-11-02T10:35:04;21.60;;;3.85;;
62006;SDS011;47963;53.008;6.754;2022-11-02T10:38:02;16.40;;;3.28;;
62006;SDS011;47963;53.008;6.754;2022-11-02T10:43:25;18.48;;;3.42;;
62006;SDS011;47963;53.008;6.754;2022-11-02T10:51:58;17.83;;;3.13;;
62006;SDS011;47963;53.008;6.754;2022-11-02T10:54:24;22.10;;;3.90;;
62006;SDS011;47963;53.008;6.754;2022-11-02T10:56:50;25.27;;;3.63;;
62006;SDS011;47963;53.008;6.754;2022-11-02T10:59:19;15.20;;;2.80;;
62006;SDS011;47963;53.008;6.754;2022-11-02T11:04:28;16.15;;;2.88;;
62006;SDS011;47963;53.008;6.754;2022-11-02T11:06:55;19.05;;;3.50;;
62006;SDS011;47963;53.008;6.754;2022-11-02T11:09:47;21.80;;;3.13;;
62006;SDS011;47963;53.008;6.754;2022-11-02T11:14:52;19.83;;;3.40;;
62006;SDS011;47963;53.008;6.754;2022-11-02T11:17:25;21.65;;;3.17;;
62006;SDS011;47963;53.008;6.754;2022-11-02T11:19:53;15.82;;;2.83;;
62006;SDS011;47963;53.008;6.754;2022-11-02T11:24:48;16.52;;;2.80;;
62006;SDS011;47963;53.008;6.754;2022-11-02T11:27:15;13.98;;;2.63;;
62006;SDS011;47963;53.008;6.754;2022-11-02T11:29:54;16.02;;;2.92;;
62006;SDS011;47963;53.008;6.754;2022-11-02T11:32:26;13.80;;;2.45;;
62006;SDS011;47963;53.008;6.754;2022-11-02T11:35:02;15.68;;;2.83;;
62006;SDS011;47963;53.008;6.754;2022-11-02T11:37:31;13.27;;;2.75;;
62006;SDS011;47963;53.008;6.754;2022-11-02T11:39:59;14.15;;;2.33;;
62006;SDS011;47963;53.008;6.754;2022-11-02T11:42:32;16.50;;;2.72;;
62006;SDS011;47963;53.008;6.754;2022-11-02T11:45:13;14.20;;;2.30;;
62006;SDS011;47963;53.008;6.754;2022-11-02T11:47:45;15.05;;;2.38;;
62006;SDS011;47963;53.008;6.754;2022-11-02T11:50:48;13.15;;;2.33;;
62006;SDS011;47963;53.008;6.754;2022-11-02T11:53:17;13.93;;;2.15;;
62006;SDS011;47963;53.008;6.754;2022-11-02T11:55:46;12.23;;;2.20;;
62006;SDS011;47963;53.008;6.754;2022-11-02T11:58:15;17.33;;;2.30;;
62006;SDS011;47963;53.008;6.754;2022-11-02T12:17:34;14.27;;;2.30;;
62006;SDS011;47963;53.008;6.754;2022-11-02T12:25:58;14.90;;;2.33;;
62006;SDS011;47963;53.008;6.754;2022-11-02T12:44:30;15.40;;;2.45;;
62006;SDS011;47963;53.008;6.754;2022-11-02T12:47:17;11.05;;;2.15;;
62006;SDS011;47963;53.008;6.754;2022-11-02T12:50:07;14.18;;;2.28;;
62006;SDS011;47963;53.008;6.754;2022-11-02T12:53:25;17.23;;;2.50;;
62006;SDS011;47963;53.008;6.754;2022-11-02T12:55:33;16.08;;;3.30;;
62006;SDS011;47963;53.008;6.754;2022-11-02T12:58:05;13.93;;;2.60;;
62006;SDS011;47963;53.008;6.754;2022-11-02T13:00:42;15.55;;;2.60;;
62006;SDS011;47963;53.008;6.754;2022-11-02T13:03:16;19.40;;;2.40;;
62006;SDS011;47963;53.008;6.754;2022-11-02T13:05:55;14.13;;;2.42;;
62006;SDS011;47963;53.008;6.754;2022-11-02T13:08:35;11.13;;;2.38;;
62006;SDS011;47963;53.008;6.754;2022-11-02T13:11:17;16.85;;;3.50;;
62006;SDS011;47963;53.008;6.754;2022-11-02T13:13:49;13.75;;;2.50;;
62006;SDS011;47963;53.008;6.754;2022-11-02T13:16:19;12.65;;;2.80;;
62006;SDS011;47963;53.008;6.754;2022-11-02T13:19:01;17.27;;;3.42;;
62006;SDS011;47963;53.008;6.754;2022-11-02T13:21:30;14.40;;;2.80;;
62006;SDS011;47963;53.008;6.754;2022-11-02T13:23:59;19.92;;;3.08;;
62006;SDS011;47963;53.008;6.754;2022-11-02T13:29:13;18.63;;;3.15;;
62006;SDS011;47963;53.008;6.754;2022-11-02T13:31:51;11.82;;;2.38;;
62006;SDS011;47963;53.008;6.754;2022-11-02T13:34:28;15.48;;;2.60;;
62006;SDS011;47963;53.008;6.754;2022-11-02T13:37:02;14.88;;;2.60;;
62006;SDS011;47963;53.008;6.754;2022-11-02T13:39:34;14.75;;;2.58;;
62006;SDS011;47963;53.008;6.754;2022-11-02T13:42:23;16.02;;;2.60;;
62006;SDS011;47963;53.008;6.754;2022-11-02T13:45:06;15.73;;;3.00;;
62006;SDS011;47963;53.008;6.754;2022-11-02T13:50:32;13.85;;;2.90;;
62006;SDS011;47963;53.008;6.754;2022-11-02T13:53:04;13.73;;;2.63;;
62006;SDS011;47963;53.008;6.754;2022-11-02T13:55:43;15.20;;;2.33;;
62006;SDS011;47963;53.008;6.754;2022-11-02T13:58:31;14.18;;;2.33;;
62006;SDS011;47963;53.008;6.754;2022-11-02T14:01:02;14.82;;;2.45;;
62006;SDS011;47963;53.008;6.754;2022-11-02T14:06:16;16.45;;;2.70;;
62006;SDS011;47963;53.008;6.754;2022-11-02T14:08:47;18.85;;;3.17;;
62006;SDS011;47963;53.008;6.754;2022-11-02T14:16:39;15.57;;;2.80;;
62006;SDS011;47963;53.008;6.754;2022-11-02T14:29:52;26.35;;;3.13;;
62006;SDS011;47963;53.008;6.754;2022-11-02T14:43:21;15.40;;;3.03;;
62006;SDS011;47963;53.008;6.754;2022-11-02T14:49:00;13.45;;;2.78;;
62006;SDS011;47963;53.008;6.754;2022-11-02T14:54:03;17.10;;;2.70;;
62006;SDS011;47963;53.008;6.754;2022-11-02T14:56:53;17.17;;;2.78;;
62006;SDS011;47963;53.008;6.754;2022-11-02T14:59:27;15.10;;;2.60;;
62006;SDS011;47963;53.008;6.754;2022-11-02T15:05:00;13.73;;;2.78;;
62006;SDS011;47963;53.008;6.754;2022-11-02T15:10:33;14.40;;;2.90;;
62006;SDS011;47963;53.008;6.754;2022-11-02T15:23:40;18.38;;;3.22;;
62006;SDS011;47963;53.008;6.754;2022-11-02T15:26:18;33.28;;;4.45;;
62006;SDS011;47963;53.008;6.754;2022-11-02T15:28:49;17.75;;;3.20;;
62006;SDS011;47963;53.008;6.754;2022-11-02T15:31:19;14.70;;;2.88;;
62006;SDS011;47963;53.008;6.754;2022-11-02T15:33:49;15.05;;;2.90;;
62006;SDS011;47963;53.008;6.754;2022-11-02T15:36:32;15.38;;;3.17;;
62006;SDS011;47963;53.008;6.754;2022-11-02T15:47:57;15.65;;;3.45;;
62006;SDS011;47963;53.008;6.754;2022-11-02T15:56:25;17.35;;;3.20;;
62006;SDS011;47963;53.008;6.754;2022-11-02T16:01:32;18.02;;;2.88;;
62006;SDS011;47963;53.008;6.754;2022-11-02T16:04:03;18.48;;;3.83;;
62006;SDS011;47963;53.008;6.754;2022-11-02T16:06:33;13.73;;;2.92;;
62006;SDS011;47963;53.008;6.754;2022-11-02T16:09:02;14.07;;;2.83;;
62006;SDS011;47963;53.008;6.754;2022-11-02T16:12:10;13.50;;;3.20;;
62006;SDS011;47963;53.008;6.754;2022-11-02T16:14:44;14.90;;;3.17;;
62006;SDS011;47963;53.008;6.754;2022-11-02T16:17:46;17.30;;;4.18;;
62006;SDS011;47963;53.008;6.754;2022-11-02T16:20:22;17.23;;;3.22;;
62006;SDS011;47963;53.008;6.754;2022-11-02T16:28:28;15.73;;;2.75;;
62006;SDS011;47963;53.008;6.754;2022-11-02T16:33:26;16.33;;;3.65;;
62006;SDS011;47963;53.008;6.754;2022-11-02T16:35:55;14.68;;;3.20;;
62006;SDS011;47963;53.008;6.754;2022-11-02T16:38:21;14.32;;;3.33;;
62006;SDS011;47963;53.008;6.754;2022-11-02T16:40:47;15.45;;;2.90;;
62006;SDS011;47963;53.008;6.754;2022-11-02T16:43:14;12.32;;;4.15;;
62006;SDS011;47963;53.008;6.754;2022-11-02T16:45:40;15.13;;;6.07;;
62006;SDS011;47963;53.008;6.754;2022-11-02T16:48:16;17.52;;;5.00;;
62006;SDS011;47963;53.008;6.754;2022-11-02T16:53:37;17.45;;;5.88;;
62006;SDS011;47963;53.008;6.754;2022-11-02T16:56:16;15.10;;;5.60;;
62006;SDS011;47963;53.008;6.754;2022-11-02T16:58:58;16.52;;;6.30;;
62006;SDS011;47963;53.008;6.754;2022-11-02T17:01:33;20.35;;;9.07;;
62006;SDS011;47963;53.008;6.754;2022-11-02T17:04:13;19.10;;;7.07;;
62006;SDS011;47963;53.008;6.754;2022-11-02T17:06:41;19.73;;;7.13;;
62006;SDS011;47963;53.008;6.754;2022-11-02T17:11:52;14.30;;;4.80;;
62006;SDS011;47963;53.008;6.754;2022-11-02T17:14:20;14.95;;;3.65;;
62006;SDS011;47963;53.008;6.754;2022-11-02T17:22:09;14.95;;;4.18;;
62006;SDS011;47963;53.008;6.754;2022-11-02T17:24:40;19.15;;;4.53;;
62006;SDS011;47963;53.008;6.754;2022-11-02T17:27:25;12.90;;;3.42;;
62006;SDS011;47963;53.008;6.754;2022-11-02T17:29:56;19.60;;;4.50;;
62006;SDS011;47963;53.008;6.754;2022-11-02T17:32:22;16.85;;;4.18;;
62006;SDS011;47963;53.008;6.754;2022-11-02T17:34:49;15.23;;;4.03;;
62006;SDS011;47963;53.008;6.754;2022-11-02T17:37:21;17.25;;;6.00;;
62006;SDS011;47963;53.008;6.754;2022-11-02T17:39:49;18.88;;;4.30;;
62006;SDS011;47963;53.008;6.754;2022-11-02T17:42:15;15.35;;;4.03;;
62006;SDS011;47963;53.008;6.754;2022-11-02T17:47:55;13.68;;;4.15;;
62006;SDS011;47963;53.008;6.754;2022-11-02T17:50:22;16.50;;;4.18;;
62006;SDS011;47963;53.008;6.754;2022-11-02T17:52:49;13.18;;;3.70;;
62006;SDS011;47963;53.008;6.754;2022-11-02T17:55:20;17.83;;;4.50;;
62006;SDS011;47963;53.008;6.754;2022-11-02T17:57:47;19.42;;;4.10;;
62006;SDS011;47963;53.008;6.754;2022-11-02T18:00:14;20.80;;;4.32;;
62006;SDS011;47963;53.008;6.754;2022-11-02T18:02:47;17.83;;;4.07;;
62006;SDS011;47963;53.008;6.754;2022-11-02T18:05:25;17.40;;;3.80;;
62006;SDS011;47963;53.008;6.754;2022-11-02T18:07:55;14.70;;;3.58;;
62006;SDS011;47963;53.008;6.754;2022-11-02T18:10:23;18.08;;;3.63;;
62006;SDS011;47963;53.008;6.754;2022-11-02T18:12:50;15.52;;;3.78;;
62006;SDS011;47963;53.008;6.754;2022-11-02T18:15:19;16.10;;;3.85;;